CheckWX is a tool to help pilots better visualize weather data.  It is not intended as a substitute for an official pre-flight weather briefing.

00:28:32 UTC

KPOV METAR
Portage County Airport
Ravenna, Ohio, USA
Current

33 mins ago

KPOV 162356Z AUTO 03003KT 10SM CLR 20/16 A3008 RMK AO2 T02030161 PWINO
Observed
Sep-16 @ 23:56 UTC
Wind
  • 030° at 3 KTS
Visibility
10 SM
Flight Rules
VFR
Cloud Levels
  • Clear skies
Temperature
20°C / 68°F
Dewpoint
16°C / 61°F
Humidity
78%
Altimeter
30.08" Hg
Pressure
1018.62 hPa
Previous

51 mins ago

KPOV 162338Z AUTO 02004KT 10SM CLR 21/16 A3008 RMK AO2 T02090162 PWINO
Observed
Sep-16 @ 23:38 UTC
Wind
  • 020° at 4 KTS
Visibility
10 SM
Flight Rules
VFR
Cloud Levels
  • Clear skies
Temperature
21°C / 70°F
Dewpoint
16°C / 61°F
Humidity
73%
Altimeter
30.08" Hg
Pressure
1018.62 hPa
Previous

1 hour ago

KPOV 162315Z AUTO 01004KT 7SM CLR 22/17 A3008 RMK AO2 T02170165 PWINO
Observed
Sep-16 @ 23:15 UTC
Wind
  • 010° at 4 KTS
Visibility
7 SM
Flight Rules
VFR
Cloud Levels
  • Clear skies
Temperature
22°C / 72°F
Dewpoint
17°C / 63°F
Humidity
73%
Altimeter
30.08" Hg
Pressure
1018.62 hPa